Time;durP1;ratioP1;P1;durP2;ratioP2;P2;SDS_P1;SDS_P2;PMS_P1;PMS_P2;Temp;Humidity;BMP_temperature;BMP_pressure;BME280_temperature;BME280_humidity;BME280_pressure;Samples;Min_cycle;Max_cycle;Signal;HPM_P1;HPM_P2
2022/11/28 00:00:51;;;;;;;35.53;18.07;;;;;;;;;;5073069;28;20606;-83
2022/11/28 00:03:18;;;;;;;19.63;10.40;;;;;;;;;;5073284;28;20232;-83
2022/11/28 00:05:45;;;;;;;7.57;5.23;;;;;;;;;;5072944;28;20212;-83
2022/11/28 00:08:14;;;;;;;8.30;5.37;;;;;;;;;;5058580;28;20209;-84
2022/11/28 00:10:41;;;;;;;8.67;5.50;;;;;;;;;;5072976;28;20638;-84
2022/11/28 00:13:08;;;;;;;7.13;5.40;;;;;;;;;;5072944;28;20209;-84
2022/11/28 00:15:35;;;;;;;9.20;5.50;;;;;;;;;;5065245;28;20202;-84
2022/11/28 00:18:02;;;;;;;6.13;4.00;;;;;;;;;;5065565;28;20573;-84
2022/11/28 00:20:30;;;;;;;6.37;4.37;;;;;;;;;;5085693;28;20206;-84
2022/11/28 00:22:57;;;;;;;5.77;4.63;;;;;;;;;;5053025;28;20202;-84
2022/11/28 00:25:26;;;;;;;9.20;5.60;;;;;;;;;;5068466;28;20749;-84
2022/11/28 00:27:53;;;;;;;10.40;5.83;;;;;;;;;;5067637;28;20208;-84
2022/11/28 00:30:20;;;;;;;9.97;6.57;;;;;;;;;;5072774;28;20205;-84
2022/11/28 00:32:47;;;;;;;9.57;6.57;;;;;;;;;;5105031;28;20236;-85
2022/11/28 00:35:14;;;;;;;8.53;6.03;;;;;;;;;;5090235;28;20630;-85
2022/11/28 00:37:41;;;;;;;6.37;4.80;;;;;;;;;;5072977;28;20209;-84
2022/11/28 00:40:09;;;;;;;4.90;4.03;;;;;;;;;;5071196;28;20683;-84
2022/11/28 00:42:38;;;;;;;5.93;4.77;;;;;;;;;;5056869;28;20201;-84
2022/11/28 00:45:05;;;;;;;7.33;4.60;;;;;;;;;;5072403;28;20224;-84
2022/11/28 00:47:32;;;;;;;7.50;4.70;;;;;;;;;;5072301;28;20197;-84
2022/11/28 00:49:59;;;;;;;9.43;5.87;;;;;;;;;;5072287;28;20231;-82
2022/11/28 00:52:26;;;;;;;6.60;4.70;;;;;;;;;;5070936;28;20213;-82
2022/11/28 00:54:53;;;;;;;7.60;4.83;;;;;;;;;;5063274;28;20210;-82
2022/11/28 00:57:20;;;;;;;7.87;5.07;;;;;;;;;;5055915;28;20685;-83
2022/11/28 00:59:49;;;;;;;5.20;4.50;;;;;;;;;;5050633;28;20204;-83
2022/11/28 01:02:16;;;;;;;6.10;4.90;;;;;;;;;;5104466;28;20205;-83
2022/11/28 01:04:43;;;;;;;5.90;5.00;;;;;;;;;;5070943;28;20282;-83
2022/11/28 01:07:10;;;;;;;5.57;5.00;;;;;;;;;;5059038;28;20206;-83
2022/11/28 01:09:38;;;;;;;7.33;5.93;;;;;;;;;;5058163;28;20693;-83
2022/11/28 01:12:05;;;;;;;7.80;5.70;;;;;;;;;;5071301;28;20220;-89
2022/11/28 01:14:32;;;;;;;7.03;5.73;;;;;;;;;;5103809;28;20267;-83
2022/11/28 01:17:01;;;;;;;8.10;5.73;;;;;;;;;;5072410;28;20572;-83
2022/11/28 01:19:28;;;;;;;9.20;5.17;;;;;;;;;;5104573;28;20631;-83
2022/11/28 01:21:55;;;;;;;7.93;4.63;;;;;;;;;;5070121;28;20201;-84
2022/11/28 01:24:22;;;;;;;6.23;5.53;;;;;;;;;;5071461;28;20239;-83
2022/11/28 01:26:50;;;;;;;6.17;4.67;;;;;;;;;;5070225;28;20262;-84
2022/11/28 01:29:17;;;;;;;7.70;5.27;;;;;;;;;;5057171;28;20209;-84
2022/11/28 01:31:44;;;;;;;6.60;5.33;;;;;;;;;;5073396;28;20234;-84
2022/11/28 01:34:12;;;;;;;6.40;5.70;;;;;;;;;;5056722;28;20688;-84
2022/11/28 01:36:39;;;;;;;8.73;5.40;;;;;;;;;;5071969;28;20576;-85
2022/11/28 01:39:06;;;;;;;6.57;5.57;;;;;;;;;;5057318;28;20746;-85
2022/11/28 01:41:33;;;;;;;6.03;5.20;;;;;;;;;;5061277;28;20592;-84
2022/11/28 01:44:02;;;;;;;5.73;5.13;;;;;;;;;;5067441;28;20281;-85
2022/11/28 01:46:30;;;;;;;6.03;5.20;;;;;;;;;;5071069;28;20209;-85
2022/11/28 01:48:59;;;;;;;8.33;6.07;;;;;;;;;;5057174;28;20205;-85
2022/11/28 01:51:27;;;;;;;7.73;5.50;;;;;;;;;;5071020;28;20216;-85
2022/11/28 01:53:54;;;;;;;7.20;6.20;;;;;;;;;;5071012;28;20209;-86
2022/11/28 01:56:25;;;;;;;10.00;5.77;;;;;;;;;;5057130;28;20213;-84
2022/11/28 01:58:55;;;;;;;7.60;5.93;;;;;;;;;;5070924;28;20205;-83
2022/11/28 02:01:23;;;;;;;6.70;5.13;;;;;;;;;;5055486;28;20194;-83
2022/11/28 02:03:51;;;;;;;11.70;6.10;;;;;;;;;;5058806;28;20263;-83
2022/11/28 02:06:22;;;;;;;7.07;5.60;;;;;;;;;;5070105;28;20562;-83
2022/11/28 02:08:52;;;;;;;7.03;5.43;;;;;;;;;;5050818;28;20292;-85
2022/11/28 02:12:03;;;;;;;10.07;5.60;;;;;;;;;;5051260;28;20744;-83
2022/11/28 02:14:42;;;;;;;9.23;5.80;;;;;;;;;;5056908;28;21027;-83
2022/11/28 02:17:15;;;;;;;7.53;5.73;;;;;;;;;;5056492;28;20209;-83
2022/11/28 02:20:17;;;;;;;6.90;6.00;;;;;;;;;;5070715;28;20204;-83
2022/11/28 02:22:50;;;;;;;10.30;6.00;;;;;;;;;;5051157;28;20676;-84
2022/11/28 02:25:40;;;;;;;8.07;6.00;;;;;;;;;;5050580;28;20296;-84
2022/11/28 02:28:30;;;;;;;7.87;6.10;;;;;;;;;;5062633;28;20205;-84
2022/11/28 02:31:06;;;;;;;8.20;6.20;;;;;;;;;;5057703;28;20220;-84
2022/11/28 02:33:36;;;;;;;9.07;6.50;;;;;;;;;;5070450;28;20735;-84
2022/11/28 02:36:09;;;;;;;8.40;6.77;;;;;;;;;;5070659;28;20205;-84
2022/11/28 02:38:55;;;;;;;8.70;5.57;;;;;;;;;;5057042;28;20217;-84
2022/11/28 02:41:28;;;;;;;7.30;6.23;;;;;;;;;;5059408;28;20200;-84
2022/11/28 02:43:57;;;;;;;8.10;6.17;;;;;;;;;;5070492;28;20239;-84
2022/11/28 02:46:29;;;;;;;9.23;7.03;;;;;;;;;;5062568;28;20620;-84
2022/11/28 02:48:59;;;;;;;9.90;6.37;;;;;;;;;;5065438;28;20423;-84
2022/11/28 02:51:29;;;;;;;8.77;6.83;;;;;;;;;;5070759;28;20203;-84
2022/11/28 02:53:57;;;;;;;11.23;6.93;;;;;;;;;;5070325;28;20216;-84
2022/11/28 02:56:25;;;;;;;7.53;5.77;;;;;;;;;;5066767;28;20741;-85
2022/11/28 02:58:53;;;;;;;6.53;5.50;;;;;;;;;;5059667;28;20201;-85
2022/11/28 03:01:23;;;;;;;7.27;5.70;;;;;;;;;;5070506;28;20633;-85
2022/11/28 03:04:02;;;;;;;8.40;6.10;;;;;;;;;;5062658;28;20226;-86
2022/11/28 03:06:38;;;;;;;10.33;7.13;;;;;;;;;;5064392;28;20208;-85
2022/11/28 03:09:27;;;;;;;7.97;6.40;;;;;;;;;;5059532;28;20197;-88
2022/11/28 03:11:59;;;;;;;9.07;6.77;;;;;;;;;;5070450;28;20212;-84
2022/11/28 03:14:34;;;;;;;9.10;6.63;;;;;;;;;;5070516;28;20274;-84
2022/11/28 03:17:08;;;;;;;9.47;6.20;;;;;;;;;;5070319;28;20220;-84
2022/11/28 03:19:38;;;;;;;13.10;7.60;;;;;;;;;;5073534;28;20230;-86
2022/11/28 03:22:10;;;;;;;9.20;6.93;;;;;;;;;;5069631;28;20298;-85
2022/11/28 03:24:42;;;;;;;7.33;5.67;;;;;;;;;;5063769;28;20236;-85
2022/11/28 03:27:15;;;;;;;9.53;5.97;;;;;;;;;;5073684;28;20209;-85
2022/11/28 03:29:45;;;;;;;9.67;6.67;;;;;;;;;;5074181;28;20197;-86
2022/11/28 03:32:16;;;;;;;7.40;5.63;;;;;;;;;;5071529;28;20681;-87
2022/11/28 03:34:47;;;;;;;9.93;6.87;;;;;;;;;;5070156;28;20201;-85
2022/11/28 03:37:16;;;;;;;8.63;6.33;;;;;;;;;;5071588;28;20201;-84
2022/11/28 03:39:46;;;;;;;7.23;5.60;;;;;;;;;;5061196;28;20216;-85
2022/11/28 03:42:15;;;;;;;7.77;6.10;;;;;;;;;;5089097;28;20240;-85
2022/11/28 03:44:45;;;;;;;8.27;6.37;;;;;;;;;;5073075;28;20232;-85
2022/11/28 03:47:12;;;;;;;8.77;6.63;;;;;;;;;;5060726;28;20706;-83
2022/11/28 03:49:42;;;;;;;9.67;7.30;;;;;;;;;;5071647;28;20208;-84
2022/11/28 03:52:13;;;;;;;8.30;6.50;;;;;;;;;;5070008;28;20213;-84
2022/11/28 03:54:44;;;;;;;6.27;5.67;;;;;;;;;;5059844;28;20205;-84
2022/11/28 03:57:15;;;;;;;8.57;6.67;;;;;;;;;;5064273;28;20209;-85
2022/11/28 03:59:43;;;;;;;6.53;5.73;;;;;;;;;;5066957;28;20303;-84
2022/11/28 04:02:15;;;;;;;8.60;6.10;;;;;;;;;;5069209;28;20214;-84
2022/11/28 04:04:51;;;;;;;13.53;6.90;;;;;;;;;;5064287;28;20236;-84
2022/11/28 04:07:25;;;;;;;8.27;6.93;;;;;;;;;;5072999;28;20714;-84
2022/11/28 04:09:56;;;;;;;10.23;6.27;;;;;;;;;;5061374;28;20209;-85
2022/11/28 04:12:32;;;;;;;8.90;6.93;;;;;;;;;;5052669;28;20198;-84
2022/11/28 04:15:02;;;;;;;9.30;6.97;;;;;;;;;;5064650;28;20219;-84
2022/11/28 04:17:32;;;;;;;8.63;7.33;;;;;;;;;;5068665;28;20680;-84
2022/11/28 04:20:04;;;;;;;8.87;5.93;;;;;;;;;;5063617;28;20208;-87
2022/11/28 04:22:37;;;;;;;8.87;6.77;;;;;;;;;;5072893;28;20209;-84
2022/11/28 04:25:05;;;;;;;10.00;7.23;;;;;;;;;;5071551;28;20232;-82
2022/11/28 04:27:35;;;;;;;12.30;6.80;;;;;;;;;;5072887;28;20245;-81
2022/11/28 04:30:03;;;;;;;8.90;6.30;;;;;;;;;;5071885;28;20215;-80
2022/11/28 04:32:31;;;;;;;6.73;6.07;;;;;;;;;;5053829;28;20226;-84
2022/11/28 04:35:01;;;;;;;8.33;6.40;;;;;;;;;;5059538;28;20220;-85
2022/11/28 04:37:30;;;;;;;9.07;5.90;;;;;;;;;;5058794;28;20205;-85
2022/11/28 04:40:00;;;;;;;8.37;6.57;;;;;;;;;;5099072;28;20221;-86
2022/11/28 04:42:33;;;;;;;8.07;5.90;;;;;;;;;;5063432;28;20197;-86
2022/11/28 04:45:04;;;;;;;8.03;5.77;;;;;;;;;;5072418;28;20229;-86
2022/11/28 04:47:30;;;;;;;11.73;7.07;;;;;;;;;;5072623;28;20220;-86
2022/11/28 04:49:58;;;;;;;14.87;8.90;;;;;;;;;;5057905;28;20638;-86
2022/11/28 04:52:29;;;;;;;33.27;18.97;;;;;;;;;;5065841;28;20593;-86
2022/11/28 04:55:02;;;;;;;19.80;12.37;;;;;;;;;;5056385;28;20205;-85
2022/11/28 04:57:30;;;;;;;10.27;6.47;;;;;;;;;;5071605;28;20270;-86
2022/11/28 04:59:58;;;;;;;7.43;6.00;;;;;;;;;;5058057;28;20692;-86
2022/11/28 05:02:26;;;;;;;36.30;19.53;;;;;;;;;;5065987;28;20213;-86
2022/11/28 05:04:54;;;;;;;17.83;11.27;;;;;;;;;;5065428;28;20577;-86
2022/11/28 05:07:22;;;;;;;13.47;7.47;;;;;;;;;;5062451;28;20205;-85
2022/11/28 05:09:49;;;;;;;28.77;13.97;;;;;;;;;;5063886;28;20203;-85
2022/11/28 05:12:17;;;;;;;59.27;29.43;;;;;;;;;;5061159;28;20643;-86
2022/11/28 05:14:44;;;;;;;10.67;8.13;;;;;;;;;;5065367;28;20213;-86
2022/11/28 05:17:12;;;;;;;5.40;3.50;;;;;;;;;;5063931;28;20193;-85
2022/11/28 05:19:39;;;;;;;5.40;4.70;;;;;;;;;;5072040;28;20201;-86
2022/11/28 05:22:06;;;;;;;4.77;4.23;;;;;;;;;;5071697;28;20632;-85
2022/11/28 05:24:33;;;;;;;5.77;4.43;;;;;;;;;;5058656;28;20193;-85
2022/11/28 05:26:59;;;;;;;5.53;4.27;;;;;;;;;;5060944;28;20271;-85
2022/11/28 05:29:28;;;;;;;3.90;3.53;;;;;;;;;;5057232;28;20210;-85
2022/11/28 05:31:55;;;;;;;4.50;3.83;;;;;;;;;;5075006;28;20278;-85
2022/11/28 05:34:21;;;;;;;5.27;3.90;;;;;;;;;;5066971;28;20228;-85
2022/11/28 05:36:48;;;;;;;4.00;3.60;;;;;;;;;;5071521;28;20270;-87
2022/11/28 05:39:15;;;;;;;4.63;3.77;;;;;;;;;;5067729;28;20212;-86
2022/11/28 05:41:42;;;;;;;3.70;3.33;;;;;;;;;;5063886;28;20272;-86
2022/11/28 05:44:10;;;;;;;5.40;4.67;;;;;;;;;;5048078;28;20212;-88
2022/11/28 05:46:38;;;;;;;5.17;4.30;;;;;;;;;;5057446;28;20793;-85
2022/11/28 05:49:05;;;;;;;3.80;3.50;;;;;;;;;;5072018;28;20282;-85
2022/11/28 05:51:31;;;;;;;4.13;3.73;;;;;;;;;;5066447;28;20202;-86
2022/11/28 05:53:58;;;;;;;4.37;3.50;;;;;;;;;;5061938;28;20212;-87
2022/11/28 05:56:25;;;;;;;3.50;3.20;;;;;;;;;;5073624;28;20266;-87
2022/11/28 05:58:52;;;;;;;3.97;3.30;;;;;;;;;;5082355;28;20208;-85
2022/11/28 06:01:20;;;;;;;3.27;2.97;;;;;;;;;;5069899;28;20209;-86
2022/11/28 06:03:49;;;;;;;3.60;3.30;;;;;;;;;;5051020;28;20213;-86
2022/11/28 06:06:17;;;;;;;3.70;3.27;;;;;;;;;;5065063;28;20282;-88
2022/11/28 06:08:45;;;;;;;3.50;3.00;;;;;;;;;;5051179;28;20285;-90
2022/11/28 06:11:13;;;;;;;3.17;2.87;;;;;;;;;;5063361;28;20215;-86
2022/11/28 06:13:40;;;;;;;2.77;2.57;;;;;;;;;;5057175;28;20199;-85
2022/11/28 06:16:08;;;;;;;3.40;2.50;;;;;;;;;;5070958;28;20254;-84
2022/11/28 06:18:35;;;;;;;3.37;2.70;;;;;;;;;;5068022;28;20197;-84
2022/11/28 06:21:05;;;;;;;12.53;7.43;;;;;;;;;;5059888;28;20198;-85
2022/11/28 06:23:32;;;;;;;15.03;10.23;;;;;;;;;;5054655;28;20209;-85
2022/11/28 06:26:04;;;;;;;27.17;16.50;;;;;;;;;;5058892;28;20593;-86
2022/11/28 06:28:30;;;;;;;7.10;5.57;;;;;;;;;;5071001;28;20204;-86
2022/11/28 06:30:57;;;;;;;15.20;11.17;;;;;;;;;;5070808;28;20749;-87
2022/11/28 06:33:24;;;;;;;7.97;6.60;;;;;;;;;;5071083;28;20703;-87
2022/11/28 06:35:52;;;;;;;5.27;4.77;;;;;;;;;;5071124;28;20219;-87
2022/11/28 06:38:21;;;;;;;6.77;4.37;;;;;;;;;;5071252;28;20216;-87
2022/11/28 06:40:47;;;;;;;4.90;2.77;;;;;;;;;;5053012;28;20209;-87
2022/11/28 06:43:14;;;;;;;2.43;2.23;;;;;;;;;;5060875;28;20691;-89
2022/11/28 06:45:41;;;;;;;2.90;2.60;;;;;;;;;;5055148;28;20238;-86
2022/11/28 06:48:08;;;;;;;2.97;2.67;;;;;;;;;;5050558;28;20206;-88
2022/11/28 06:50:35;;;;;;;3.20;2.63;;;;;;;;;;5065421;28;20244;-87
2022/11/28 06:53:01;;;;;;;3.43;3.13;;;;;;;;;;5065851;28;20206;-87
2022/11/28 06:55:31;;;;;;;3.83;3.43;;;;;;;;;;5068388;28;20208;-87
2022/11/28 06:57:57;;;;;;;3.47;3.17;;;;;;;;;;5073437;28;20679;-89
2022/11/28 07:00:25;;;;;;;7.17;3.00;;;;;;;;;;5068404;28;20204;-88
2022/11/28 07:02:51;;;;;;;3.37;3.07;;;;;;;;;;5062526;28;20660;-87
2022/11/28 07:05:20;;;;;;;3.83;3.50;;;;;;;;;;5075324;28;20643;-88
2022/11/28 07:07:47;;;;;;;3.70;3.23;;;;;;;;;;5075266;28;20209;-88
2022/11/28 07:10:14;;;;;;;5.33;4.27;;;;;;;;;;5074268;28;20209;-90
2022/11/28 07:12:42;;;;;;;8.43;5.73;;;;;;;;;;5064211;28;20264;-88
2022/11/28 07:15:10;;;;;;;11.87;8.77;;;;;;;;;;5068435;28;20198;-88
2022/11/28 07:17:37;;;;;;;7.37;6.57;;;;;;;;;;5063731;28;20226;-87
2022/11/28 07:20:05;;;;;;;9.73;6.80;;;;;;;;;;5074663;28;20212;-87
2022/11/28 07:22:31;;;;;;;7.67;6.60;;;;;;;;;;5074591;28;20227;-87
2022/11/28 07:24:58;;;;;;;9.17;7.77;;;;;;;;;;5074545;28;20270;-87
2022/11/28 07:27:25;;;;;;;9.13;6.57;;;;;;;;;;5068470;28;20194;-87
2022/11/28 07:29:53;;;;;;;7.17;5.43;;;;;;;;;;5066132;28;20239;-87
2022/11/28 07:32:20;;;;;;;9.23;5.60;;;;;;;;;;5067915;28;20264;-88
2022/11/28 07:34:47;;;;;;;7.30;5.87;;;;;;;;;;5063842;28;20275;-88
2022/11/28 07:37:14;;;;;;;9.90;7.77;;;;;;;;;;5071008;28;20200;-87
2022/11/28 07:39:43;;;;;;;5.90;5.13;;;;;;;;;;5074228;28;20217;-86
2022/11/28 07:42:10;;;;;;;5.67;5.03;;;;;;;;;;5074258;28;20266;-86
2022/11/28 07:44:36;;;;;;;7.10;5.00;;;;;;;;;;5073412;28;20251;-87
2022/11/28 07:47:05;;;;;;;7.20;5.10;;;;;;;;;;5073904;28;20232;-86
2022/11/28 07:49:32;;;;;;;6.47;5.23;;;;;;;;;;5059479;28;20204;-87
2022/11/28 07:51:59;;;;;;;6.90;4.93;;;;;;;;;;5061937;28;20308;-87
2022/11/28 07:54:26;;;;;;;7.00;5.27;;;;;;;;;;5057839;28;20209;-87
2022/11/28 07:56:53;;;;;;;6.90;4.33;;;;;;;;;;5079852;28;20208;-87
2022/11/28 07:59:19;;;;;;;6.53;4.80;;;;;;;;;;5081008;28;20208;-86
2022/11/28 08:01:48;;;;;;;5.50;4.67;;;;;;;;;;5068804;28;20210;-87
2022/11/28 08:04:17;;;;;;;7.47;6.67;;;;;;;;;;5053932;28;20296;-86
2022/11/28 08:06:44;;;;;;;5.57;5.03;;;;;;;;;;5053529;28;20234;-86
2022/11/28 08:09:11;;;;;;;6.83;5.00;;;;;;;;;;5063168;28;20215;-86
2022/11/28 08:11:38;;;;;;;4.80;4.30;;;;;;;;;;5071134;28;20719;-88
2022/11/28 08:14:05;;;;;;;7.67;5.57;;;;;;;;;;5061239;28;20271;-87
2022/11/28 08:16:32;;;;;;;6.17;4.93;;;;;;;;;;5073460;28;20212;-87
2022/11/28 08:19:00;;;;;;;8.83;7.67;;;;;;;;;;5067340;28;20290;-87
2022/11/28 08:21:30;;;;;;;5.87;5.13;;;;;;;;;;5066539;28;20205;-88
2022/11/28 08:24:00;;;;;;;5.30;4.57;;;;;;;;;;5067955;28;20213;-88
2022/11/28 08:26:29;;;;;;;5.47;4.87;;;;;;;;;;5053149;28;20291;-87
2022/11/28 08:28:56;;;;;;;6.80;4.27;;;;;;;;;;5067541;28;20254;-88
2022/11/28 08:31:25;;;;;;;5.30;3.67;;;;;;;;;;5053219;28;20216;-88
2022/11/28 08:33:54;;;;;;;5.93;3.50;;;;;;;;;;5055987;28;20229;-87
2022/11/28 08:36:22;;;;;;;3.97;3.57;;;;;;;;;;5072954;28;20205;-87
2022/11/28 08:38:50;;;;;;;5.43;4.10;;;;;;;;;;5073442;28;20209;-87
2022/11/28 08:41:19;;;;;;;5.13;4.13;;;;;;;;;;5064827;28;20217;-87
2022/11/28 08:43:46;;;;;;;5.50;4.30;;;;;;;;;;5067452;28;20209;-89
2022/11/28 08:46:15;;;;;;;4.03;3.63;;;;;;;;;;5073104;28;20612;-87
2022/11/28 08:48:42;;;;;;;3.60;3.30;;;;;;;;;;5073500;28;20679;-87
2022/11/28 08:51:13;;;;;;;6.23;4.37;;;;;;;;;;5072650;28;20205;-88
2022/11/28 08:53:40;;;;;;;5.57;4.47;;;;;;;;;;5061320;28;20237;-87
2022/11/28 08:56:08;;;;;;;5.30;4.40;;;;;;;;;;5070598;28;20684;-89
2022/11/28 08:58:36;;;;;;;4.13;3.33;;;;;;;;;;5072696;28;20212;-88
2022/11/28 09:01:03;;;;;;;4.30;3.90;;;;;;;;;;5060059;28;20304;-88
2022/11/28 09:03:30;;;;;;;6.30;3.87;;;;;;;;;;5052554;28;20660;-87
2022/11/28 09:06:03;;;;;;;4.87;3.97;;;;;;;;;;5064073;28;20232;-88
2022/11/28 09:08:29;;;;;;;3.37;3.00;;;;;;;;;;5058550;28;20250;-87
2022/11/28 09:10:56;;;;;;;3.93;2.67;;;;;;;;;;5072828;28;20205;-87
2022/11/28 09:13:26;;;;;;;5.13;3.43;;;;;;;;;;5072313;28;20213;-88
2022/11/28 09:15:53;;;;;;;3.47;3.17;;;;;;;;;;5063383;28;20205;-87
2022/11/28 09:18:20;;;;;;;2.70;2.50;;;;;;;;;;5052546;28;20564;-87
2022/11/28 09:20:47;;;;;;;3.70;3.00;;;;;;;;;;5059855;28;20209;-87
2022/11/28 09:23:14;;;;;;;2.53;2.33;;;;;;;;;;5072326;28;20213;-88
2022/11/28 09:25:41;;;;;;;3.03;2.73;;;;;;;;;;5071747;28;20695;-87
2022/11/28 09:28:08;;;;;;;10.27;7.30;;;;;;;;;;5072221;28;20212;-88
2022/11/28 09:30:36;;;;;;;3.47;3.17;;;;;;;;;;5067774;28;20206;-89
2022/11/28 09:33:03;;;;;;;2.90;2.60;;;;;;;;;;5052088;28;20225;-88
2022/11/28 09:35:30;;;;;;;3.13;2.83;;;;;;;;;;5054574;28;20205;-87
2022/11/28 09:37:58;;;;;;;2.80;2.60;;;;;;;;;;5071730;28;20201;-88
2022/11/28 09:40:32;;;;;;;2.40;2.20;;;;;;;;;;5057954;28;20647;-88
2022/11/28 09:43:01;;;;;;;2.13;1.90;;;;;;;;;;5063732;28;20233;-88
2022/11/28 09:45:27;;;;;;;2.40;2.23;;;;;;;;;;5066164;28;20220;-88
2022/11/28 09:47:58;;;;;;;2.83;2.63;;;;;;;;;;5065209;28;20225;-88
2022/11/28 09:50:26;;;;;;;3.77;3.20;;;;;;;;;;5051768;28;20210;-86
2022/11/28 09:52:58;;;;;;;5.23;4.73;;;;;;;;;;5071341;28;20266;-88
2022/11/28 09:55:32;;;;;;;3.43;3.13;;;;;;;;;;5071896;28;20212;-88
2022/11/28 09:57:59;;;;;;;3.30;3.00;;;;;;;;;;5067434;28;20211;-88
2022/11/28 10:00:33;;;;;;;23.47;12.80;;;;;;;;;;5072138;28;20295;-88
2022/11/28 10:03:14;;;;;;;3.30;2.57;;;;;;;;;;5057327;28;20773;-87
2022/11/28 10:05:48;;;;;;;3.87;2.87;;;;;;;;;;5071631;28;20723;-87
2022/11/28 10:08:22;;;;;;;2.50;2.10;;;;;;;;;;5071734;28;20266;-88
2022/11/28 10:10:56;;;;;;;3.13;2.80;;;;;;;;;;5062393;28;20278;-88
2022/11/28 10:13:28;;;;;;;6.57;5.97;;;;;;;;;;5053733;28;20644;-88
2022/11/28 10:15:59;;;;;;;8.93;8.20;;;;;;;;;;5071389;28;20582;-87
2022/11/28 10:18:35;;;;;;;3.57;3.27;;;;;;;;;;5057440;28;20201;-88
2022/11/28 10:21:05;;;;;;;7.83;7.13;;;;;;;;;;5062580;28;20217;-89
2022/11/28 10:23:35;;;;;;;9.60;8.37;;;;;;;;;;5067166;28;20211;-87
2022/11/28 10:26:06;;;;;;;5.87;5.43;;;;;;;;;;5071788;28;20197;-87
2022/11/28 10:28:35;;;;;;;7.10;6.40;;;;;;;;;;5073354;28;20284;-87
2022/11/28 10:31:05;;;;;;;5.50;5.00;;;;;;;;;;5075161;28;20744;-87
2022/11/28 10:33:38;;;;;;;7.50;6.80;;;;;;;;;;5061404;28;20237;-86
2022/11/28 10:36:05;;;;;;;20.37;11.30;;;;;;;;;;5068171;28;20303;-88
2022/11/28 10:38:35;;;;;;;7.70;6.30;;;;;;;;;;5069513;28;20259;-88
2022/11/28 10:41:10;;;;;;;67.37;34.07;;;;;;;;;;5075472;28;20219;-86
2022/11/28 10:43:43;;;;;;;11.90;6.97;;;;;;;;;;5070184;28;20208;-87
2022/11/28 10:46:35;;;;;;;6.23;4.70;;;;;;;;;;5061475;28;20561;-87
2022/11/28 10:49:16;;;;;;;4.00;3.60;;;;;;;;;;5073313;28;20204;-87
2022/11/28 10:51:48;;;;;;;3.90;3.60;;;;;;;;;;5074970;28;20212;-87
2022/11/28 10:54:26;;;;;;;1.93;1.83;;;;;;;;;;5060645;28;20299;-87
2022/11/28 10:56:59;;;;;;;2.07;1.90;;;;;;;;;;5068518;28;20217;-88
2022/11/28 10:59:34;;;;;;;2.80;2.20;;;;;;;;;;5068259;28;20205;-87
2022/11/28 11:02:04;;;;;;;2.03;1.93;;;;;;;;;;5061556;28;20213;-85
2022/11/28 11:04:33;;;;;;;2.00;1.90;;;;;;;;;;5061044;28;20241;-86
2022/11/28 11:07:09;;;;;;;1.83;1.73;;;;;;;;;;5068689;28;20222;-86
2022/11/28 11:09:36;;;;;;;1.70;1.60;;;;;;;;;;5067166;28;20688;-86
2022/11/28 11:12:04;;;;;;;1.73;1.37;;;;;;;;;;5074441;28;20292;-85
2022/11/28 11:14:38;;;;;;;2.17;1.97;;;;;;;;;;5073966;28;20201;-85
2022/11/28 11:17:05;;;;;;;1.30;1.20;;;;;;;;;;5074233;28;20237;-84
2022/11/28 11:19:35;;;;;;;1.70;1.60;;;;;;;;;;5073815;28;20648;-85
2022/11/28 11:22:05;;;;;;;1.30;1.20;;;;;;;;;;5074035;28;20194;-84
2022/11/28 11:24:32;;;;;;;1.07;1.07;;;;;;;;;;5073772;28;20212;-85
2022/11/28 11:27:07;;;;;;;1.43;1.33;;;;;;;;;;5073531;28;20232;-85
2022/11/28 11:29:36;;;;;;;1.50;1.40;;;;;;;;;;5063884;28;20201;-85
2022/11/28 11:32:05;;;;;;;1.37;1.27;;;;;;;;;;5055679;28;20321;-85
2022/11/28 11:34:38;;;;;;;1.20;1.20;;;;;;;;;;5064996;28;20210;-85
2022/11/28 11:37:31;;;;;;;1.20;1.10;;;;;;;;;;5055233;28;20285;-85
2022/11/28 11:39:59;;;;;;;1.20;1.10;;;;;;;;;;5073033;28;20735;-85
2022/11/28 11:42:27;;;;;;;39.57;22.60;;;;;;;;;;5056151;28;20696;-84
2022/11/28 11:44:54;;;;;;;6.83;5.33;;;;;;;;;;5063310;28;20209;-85
2022/11/28 11:47:41;;;;;;;22.43;16.17;;;;;;;;;;5073528;28;20224;-85
2022/11/28 11:50:16;;;;;;;9.70;8.70;;;;;;;;;;5073696;28;20212;-84
2022/11/28 11:52:43;;;;;;;2.00;1.90;;;;;;;;;;5055061;28;20205;-84
2022/11/28 11:55:14;;;;;;;2.50;2.30;;;;;;;;;;5063670;28;20201;-85
2022/11/28 11:57:44;;;;;;;1.90;1.80;;;;;;;;;;5086678;28;20201;-84
2022/11/28 12:00:16;;;;;;;2.23;2.03;;;;;;;;;;5073754;28;20626;-84
2022/11/28 12:02:46;;;;;;;2.07;1.90;;;;;;;;;;5060914;28;20202;-85
2022/11/28 12:05:17;;;;;;;2.10;2.00;;;;;;;;;;5058769;28;20205;-86
2022/11/28 12:07:50;;;;;;;1.20;1.10;;;;;;;;;;5073427;28;20286;-86
2022/11/28 12:10:19;;;;;;;1.10;1.00;;;;;;;;;;5073369;28;20263;-85
2022/11/28 12:12:46;;;;;;;1.00;1.00;;;;;;;;;;5061874;28;20202;-85
2022/11/28 12:15:17;;;;;;;1.37;1.27;;;;;;;;;;5073824;28;20193;-86
2022/11/28 12:17:50;;;;;;;0.83;0.83;;;;;;;;;;5083184;28;20292;-85
2022/11/28 12:20:34;;;;;;;1.43;1.33;;;;;;;;;;5069749;28;20202;-85
2022/11/28 12:23:06;;;;;;;1.07;1.07;;;;;;;;;;5052833;28;20202;-85
2022/11/28 12:25:37;;;;;;;1.10;1.03;;;;;;;;;;5066766;28;20259;-85
2022/11/28 12:28:13;;;;;;;1.30;1.20;;;;;;;;;;5064011;28;20224;-85
2022/11/28 12:30:50;;;;;;;4.67;3.67;;;;;;;;;;5072547;28;20205;-85
2022/11/28 12:33:27;;;;;;;3.50;3.17;;;;;;;;;;5073149;28;20232;-85
2022/11/28 12:36:05;;;;;;;3.63;3.33;;;;;;;;;;5067264;28;20198;-86
2022/11/28 12:38:42;;;;;;;3.67;2.63;;;;;;;;;;5066414;28;20586;-87
2022/11/28 12:41:21;;;;;;;3.90;2.73;;;;;;;;;;5059448;28;20208;-87
2022/11/28 12:43:56;;;;;;;1.67;1.57;;;;;;;;;;5073207;28;20209;-86
2022/11/28 12:46:27;;;;;;;2.20;2.03;;;;;;;;;;5072611;28;20228;-87
2022/11/28 12:49:03;;;;;;;1.63;1.53;;;;;;;;;;5059003;28;20251;-86
2022/11/28 12:51:40;;;;;;;1.43;1.33;;;;;;;;;;5071697;28;20699;-86
2022/11/28 12:54:26;;;;;;;1.33;1.23;;;;;;;;;;5058381;28;20205;-86
2022/11/28 12:56:58;;;;;;;1.37;1.27;;;;;;;;;;5061323;28;20213;-86
2022/11/28 12:59:29;;;;;;;2.10;1.50;;;;;;;;;;5065569;28;20302;-89
2022/11/28 13:02:01;;;;;;;1.50;1.40;;;;;;;;;;5072763;28;20201;-86
2022/11/28 13:04:49;;;;;;;1.30;1.20;;;;;;;;;;5059004;28;20201;-87
2022/11/28 13:07:26;;;;;;;1.27;1.27;;;;;;;;;;5060237;28;20229;-86
2022/11/28 13:10:01;;;;;;;1.40;1.30;;;;;;;;;;5072370;28;20209;-86
2022/11/28 13:12:40;;;;;;;1.53;1.43;;;;;;;;;;5072334;28;20691;-87
2022/11/28 13:15:12;;;;;;;1.50;1.40;;;;;;;;;;5069528;28;20212;-86
2022/11/28 13:17:44;;;;;;;1.73;1.40;;;;;;;;;;5052458;28;20279;-86
2022/11/28 13:20:20;;;;;;;1.33;1.23;;;;;;;;;;5053940;28;20220;-86
2022/11/28 13:22:58;;;;;;;1.73;1.33;;;;;;;;;;5072017;28;20211;-87
2022/11/28 13:25:29;;;;;;;1.63;1.10;;;;;;;;;;5072441;28;20632;-85
2022/11/28 13:28:02;;;;;;;0.93;0.93;;;;;;;;;;5071942;28;20233;-86
2022/11/28 13:30:32;;;;;;;1.43;1.33;;;;;;;;;;5071160;28;20224;-87
2022/11/28 13:33:04;;;;;;;1.90;1.63;;;;;;;;;;5062154;28;20754;-86
2022/11/28 13:35:31;;;;;;;1.40;1.30;;;;;;;;;;5068301;28;20204;-87
2022/11/28 13:38:05;;;;;;;6.17;4.60;;;;;;;;;;5071243;28;20607;-87
2022/11/28 13:40:38;;;;;;;6.40;3.30;;;;;;;;;;5057751;28;20221;-87
2022/11/28 13:43:11;;;;;;;1.00;1.00;;;;;;;;;;5071572;28;20201;-88
2022/11/28 13:45:41;;;;;;;3.30;2.47;;;;;;;;;;5057820;28;20212;-87
2022/11/28 13:48:46;;;;;;;8.80;7.30;;;;;;;;;;5055653;28;20225;-89
2022/11/28 13:51:18;;;;;;;7.13;5.50;;;;;;;;;;5070894;28;20205;-88
2022/11/28 13:53:48;;;;;;;9.67;8.73;;;;;;;;;;5072555;28;20586;-87
2022/11/28 13:56:23;;;;;;;5.43;3.73;;;;;;;;;;5072975;28;20236;-87
2022/11/28 13:58:52;;;;;;;3.40;3.10;;;;;;;;;;5083523;28;20247;-87
2022/11/28 14:01:21;;;;;;;5.73;4.70;;;;;;;;;;5070231;28;20319;-88
2022/11/28 14:03:49;;;;;;;7.33;6.60;;;;;;;;;;5051358;28;20573;-88
2022/11/28 14:06:18;;;;;;;2.70;2.17;;;;;;;;;;5065586;28;20208;-88
2022/11/28 14:08:48;;;;;;;1.60;1.50;;;;;;;;;;5057757;28;20244;-87
2022/11/28 14:11:27;;;;;;;2.23;2.03;;;;;;;;;;5070825;28;20211;-86
2022/11/28 14:14:11;;;;;;;1.10;1.10;;;;;;;;;;5057859;28;20203;-85
2022/11/28 14:16:47;;;;;;;1.37;1.27;;;;;;;;;;5069783;28;20278;-84
2022/11/28 14:19:22;;;;;;;1.67;1.57;;;;;;;;;;5059304;28;20204;-86
2022/11/28 14:21:57;;;;;;;1.50;1.40;;;;;;;;;;5070681;28;20212;-85
2022/11/28 14:24:39;;;;;;;2.00;1.80;;;;;;;;;;5071143;28;20215;-86
2022/11/28 14:27:07;;;;;;;2.13;2.03;;;;;;;;;;5056772;28;20201;-86
2022/11/28 14:29:38;;;;;;;3.23;2.93;;;;;;;;;;5061538;28;20197;-85
2022/11/28 14:32:05;;;;;;;2.43;2.23;;;;;;;;;;5066952;28;20240;-85
2022/11/28 14:34:40;;;;;;;2.17;2.07;;;;;;;;;;5070752;28;20649;-88
2022/11/28 14:37:35;;;;;;;0.87;0.87;;;;;;;;;;5056831;28;20293;-86
2022/11/28 14:40:42;;;;;;;1.40;1.30;;;;;;;;;;5070263;28;20726;-92
2022/11/28 14:43:27;;;;;;;1.73;1.63;;;;;;;;;;5060476;28;20262;-88
2022/11/28 14:46:26;;;;;;;2.10;1.87;;;;;;;;;;5066910;28;20263;-87
2022/11/28 14:49:20;;;;;;;1.70;1.60;;;;;;;;;;5051268;28;20237;-88
2022/11/28 14:52:12;;;;;;;3.13;2.77;;;;;;;;;;5069626;28;20248;-87
2022/11/28 14:54:42;;;;;;;2.53;1.83;;;;;;;;;;5071550;28;20212;-87
2022/11/28 14:57:13;;;;;;;1.43;1.33;;;;;;;;;;5071940;28;20636;-88
2022/11/28 14:59:40;;;;;;;3.40;2.80;;;;;;;;;;5057535;28;20240;-88
2022/11/28 15:02:42;;;;;;;11.03;7.03;;;;;;;;;;5064323;28;20278;-89